createdAt,value
2022-08-09T00:00:02.339Z,0
2022-08-09T00:01:08.527Z,0
2022-08-09T00:02:14.737Z,0
2022-08-09T00:03:20.937Z,0
2022-08-09T00:04:27.140Z,0
2022-08-09T00:05:33.354Z,0
2022-08-09T00:06:39.561Z,0
2022-08-09T00:07:45.766Z,0
2022-08-09T00:08:51.961Z,0
2022-08-09T00:09:58.165Z,0
2022-08-09T00:11:04.379Z,0
2022-08-09T00:12:10.576Z,0
2022-08-09T00:13:16.790Z,0
2022-08-09T00:14:22.997Z,0
2022-08-09T00:15:29.192Z,0
2022-08-09T00:16:35.401Z,0
2022-08-09T00:17:41.612Z,0
2022-08-09T00:18:47.805Z,0
2022-08-09T00:19:54.008Z,0
2022-08-09T00:21:00.228Z,0
2022-08-09T00:22:06.451Z,0
2022-08-09T00:23:12.669Z,0
2022-08-09T00:24:18.846Z,0
2022-08-09T00:25:25.051Z,0
2022-08-09T00:26:31.271Z,0
2022-08-09T00:27:37.474Z,0
2022-08-09T00:28:43.700Z,0
2022-08-09T00:29:49.906Z,0
2022-08-09T00:30:56.119Z,0
2022-08-09T00:32:02.323Z,0
2022-08-09T00:33:08.537Z,0
2022-08-09T00:34:14.740Z,0
2022-08-09T00:35:20.949Z,0
2022-08-09T00:36:27.155Z,0
2022-08-09T00:37:33.463Z,0
2022-08-09T00:38:38.739Z,0
2022-08-09T00:39:44.969Z,0
2022-08-09T00:40:51.171Z,0
2022-08-09T00:41:57.396Z,0
2022-08-09T00:43:03.599Z,0
2022-08-09T00:44:09.812Z,0
2022-08-09T00:45:16.024Z,0
2022-08-09T00:46:22.246Z,0
2022-08-09T00:47:28.438Z,0
2022-08-09T00:48:34.650Z,0
2022-08-09T00:49:40.870Z,0
2022-08-09T00:50:47.084Z,0
2022-08-09T00:51:53.298Z,0
2022-08-09T00:52:59.507Z,0
2022-08-09T00:54:05.740Z,0
2022-08-09T00:55:11.948Z,0
2022-08-09T00:56:18.164Z,0
2022-08-09T00:57:24.379Z,0
2022-08-09T00:58:30.591Z,0
2022-08-09T00:59:36.803Z,0
2022-08-09T01:00:43.017Z,0
2022-08-09T01:01:49.222Z,0
2022-08-09T01:02:55.465Z,0
2022-08-09T01:04:01.683Z,0
2022-08-09T01:05:07.880Z,0
2022-08-09T01:06:14.196Z,0
2022-08-09T01:07:19.466Z,0
2022-08-09T01:08:25.691Z,0
2022-08-09T01:09:31.905Z,0
2022-08-09T01:10:38.139Z,0
2022-08-09T01:11:44.343Z,0
2022-08-09T01:12:50.560Z,0
2022-08-09T01:13:56.783Z,0
2022-08-09T01:15:03.013Z,0
2022-08-09T01:16:09.221Z,0
2022-08-09T01:17:15.445Z,0
2022-08-09T01:18:21.651Z,0
2022-08-09T01:19:27.869Z,0
2022-08-09T01:20:34.100Z,0
2022-08-09T01:21:40.302Z,0
2022-08-09T01:22:46.535Z,0
2022-08-09T01:23:52.753Z,0
2022-08-09T01:24:58.965Z,0
2022-08-09T01:26:05.232Z,0
2022-08-09T01:27:11.439Z,0
2022-08-09T01:28:17.635Z,0
2022-08-09T01:29:23.857Z,0
2022-08-09T01:30:30.082Z,0
2022-08-09T01:31:36.303Z,0
2022-08-09T01:32:42.549Z,0
2022-08-09T01:33:48.770Z,0
2022-08-09T01:34:55.072Z,0
2022-08-09T01:36:00.357Z,0
2022-08-09T01:37:06.590Z,0
2022-08-09T01:38:12.802Z,0
2022-08-09T01:39:19.027Z,0
2022-08-09T01:40:25.247Z,0
2022-08-09T01:41:31.481Z,0
2022-08-09T01:42:37.698Z,0
2022-08-09T01:43:43.927Z,0
2022-08-09T01:44:50.152Z,0
2022-08-09T01:45:56.395Z,0
2022-08-09T01:47:02.616Z,0
2022-08-09T01:48:08.823Z,0
2022-08-09T01:49:15.032Z,0
2022-08-09T01:50:21.260Z,0
2022-08-09T01:51:27.485Z,0
2022-08-09T01:52:33.698Z,0
2022-08-09T01:53:39.919Z,0
2022-08-09T01:54:46.147Z,0
2022-08-09T01:55:52.379Z,0
2022-08-09T01:56:58.587Z,0
2022-08-09T01:58:04.823Z,0
2022-08-09T01:59:11.065Z,0
2022-08-09T02:00:17.261Z,0
2022-08-09T02:01:23.486Z,0
2022-08-09T02:02:29.703Z,0
2022-08-09T02:03:36.006Z,0
2022-08-09T02:04:41.298Z,0
2022-08-09T02:05:47.523Z,0
2022-08-09T02:06:53.733Z,0
2022-08-09T02:07:59.946Z,0
2022-08-09T02:09:06.174Z,0
2022-08-09T02:10:12.384Z,0
2022-08-09T02:11:18.609Z,0
2022-08-09T02:12:24.821Z,0
2022-08-09T02:13:31.046Z,0
2022-08-09T02:14:37.279Z,0
2022-08-09T02:15:43.500Z,0
2022-08-09T02:16:49.720Z,0
2022-08-09T02:17:55.936Z,0
2022-08-09T02:19:02.162Z,0
2022-08-09T02:20:08.388Z,0
2022-08-09T02:21:14.601Z,0
2022-08-09T02:22:20.833Z,0
2022-08-09T02:23:27.063Z,0
2022-08-09T02:24:33.276Z,0
2022-08-09T02:25:39.500Z,0
2022-08-09T02:26:45.722Z,0
2022-08-09T02:27:51.967Z,0
2022-08-09T02:28:58.180Z,0
2022-08-09T02:30:04.385Z,0
2022-08-09T02:31:10.614Z,0
2022-08-09T02:32:16.908Z,0
2022-08-09T02:33:22.205Z,0
2022-08-09T02:34:28.433Z,0
2022-08-09T02:35:34.684Z,0
2022-08-09T02:36:40.868Z,0
2022-08-09T02:37:47.107Z,0
2022-08-09T02:38:53.331Z,0
2022-08-09T02:39:59.554Z,0
2022-08-09T02:41:05.782Z,0
2022-08-09T02:42:11.974Z,0
2022-08-09T02:43:18.226Z,0
2022-08-09T02:44:24.431Z,0
2022-08-09T02:45:30.645Z,0
2022-08-09T02:46:36.872Z,0
2022-08-09T02:47:43.088Z,0
2022-08-09T02:48:49.309Z,0
2022-08-09T02:49:55.530Z,0
2022-08-09T02:51:01.760Z,0
2022-08-09T02:52:07.977Z,0
2022-08-09T02:53:14.199Z,0
2022-08-09T02:54:20.422Z,0
2022-08-09T02:55:26.637Z,0
2022-08-09T02:56:32.867Z,0
2022-08-09T02:57:39.118Z,0
2022-08-09T02:58:45.317Z,0
2022-08-09T02:59:51.536Z,0
2022-08-09T03:00:57.846Z,0
2022-08-09T03:02:03.120Z,0
2022-08-09T03:03:09.352Z,0
2022-08-09T03:04:15.570Z,3
2022-08-09T03:05:21.802Z,4
2022-08-09T03:06:28.025Z,0
2022-08-09T03:07:34.229Z,0
2022-08-09T03:08:40.447Z,0
2022-08-09T03:09:46.665Z,4
2022-08-09T03:10:52.889Z,4
2022-08-09T03:11:59.099Z,1
2022-08-09T03:13:05.322Z,1
2022-08-09T03:14:11.529Z,5
2022-08-09T03:15:17.752Z,3
2022-08-09T03:16:23.972Z,3
2022-08-09T03:17:30.181Z,4
2022-08-09T03:18:36.404Z,4
2022-08-09T03:19:42.625Z,23
2022-08-09T03:20:48.839Z,16
2022-08-09T03:21:55.071Z,12
2022-08-09T03:23:01.284Z,10
2022-08-09T03:24:07.502Z,13
2022-08-09T03:25:13.722Z,19
2022-08-09T03:26:19.946Z,33
2022-08-09T03:27:26.159Z,29
2022-08-09T03:28:32.395Z,39
2022-08-09T03:29:38.682Z,44
2022-08-09T03:30:43.987Z,49
2022-08-09T03:31:50.192Z,59
2022-08-09T03:32:56.399Z,77
2022-08-09T03:34:02.639Z,96
2022-08-09T03:35:08.849Z,85
2022-08-09T03:36:15.066Z,98
2022-08-09T03:37:21.291Z,125
2022-08-09T03:38:27.514Z,143
2022-08-09T03:39:33.739Z,166
2022-08-09T03:40:39.955Z,172
2022-08-09T03:41:46.179Z,198
2022-08-09T03:42:52.405Z,246
2022-08-09T03:43:58.621Z,239
2022-08-09T03:45:04.835Z,256
2022-08-09T03:46:11.060Z,296
2022-08-09T03:47:17.287Z,318
2022-08-09T03:48:23.508Z,345
2022-08-09T03:49:29.730Z,367
2022-08-09T03:50:35.955Z,367
2022-08-09T03:51:42.172Z,390
2022-08-09T03:52:48.388Z,404
2022-08-09T03:53:54.629Z,418
2022-08-09T03:55:00.853Z,431
2022-08-09T03:56:07.069Z,453
2022-08-09T03:57:13.298Z,454
2022-08-09T03:58:19.606Z,463
2022-08-09T03:59:24.895Z,467
2022-08-09T04:00:31.122Z,459
2022-08-09T04:01:37.334Z,455
2022-08-09T04:02:43.559Z,464
2022-08-09T04:03:49.776Z,473
2022-08-09T04:04:56.010Z,456
2022-08-09T04:06:02.216Z,466
2022-08-09T04:07:08.443Z,480
2022-08-09T04:08:14.672Z,477
2022-08-09T04:09:20.870Z,483
2022-08-09T04:10:27.093Z,502
2022-08-09T04:11:33.299Z,522
2022-08-09T04:12:39.524Z,529
2022-08-09T04:13:45.792Z,548
2022-08-09T04:14:51.960Z,568
2022-08-09T04:15:58.164Z,610
2022-08-09T04:17:04.368Z,625
2022-08-09T04:18:10.588Z,660
2022-08-09T04:19:16.803Z,676
2022-08-09T04:20:23.015Z,714
2022-08-09T04:21:29.211Z,751
2022-08-09T04:22:35.429Z,780
2022-08-09T04:23:41.635Z,800
2022-08-09T04:24:47.857Z,837
2022-08-09T04:25:54.054Z,884
2022-08-09T04:27:00.334Z,925
2022-08-09T04:28:05.621Z,957
2022-08-09T04:29:11.814Z,994
2022-08-09T04:30:18.024Z,999
2022-08-09T04:31:24.219Z,1006
2022-08-09T04:32:30.420Z,1011
2022-08-09T04:33:36.923Z,1037
2022-08-09T04:34:42.835Z,1043
2022-08-09T04:35:49.029Z,1053
2022-08-09T04:36:55.220Z,1059
2022-08-09T04:38:01.431Z,1048
2022-08-09T04:39:07.630Z,1063
2022-08-09T04:40:13.822Z,1087
2022-08-09T04:41:20.023Z,1090
2022-08-09T04:42:26.223Z,1123
2022-08-09T04:43:31.463Z,1161
2022-08-09T04:44:37.637Z,1160
2022-08-09T04:45:43.844Z,1198
2022-08-09T04:46:49.062Z,1239
2022-08-09T04:47:54.285Z,1250
2022-08-09T04:49:00.470Z,1279
2022-08-09T04:50:06.674Z,1291
2022-08-09T04:51:12.873Z,1330
2022-08-09T04:52:19.063Z,1376
2022-08-09T04:53:25.255Z,1415
2022-08-09T04:54:31.449Z,1449
2022-08-09T04:55:37.632Z,1487
2022-08-09T04:56:43.825Z,1521
2022-08-09T04:57:50.016Z,1547
2022-08-09T04:58:56.206Z,1581
2022-08-09T05:00:02.401Z,1636
2022-08-09T05:01:08.582Z,1683
2022-08-09T05:02:13.790Z,1705
2022-08-09T05:03:19.985Z,1737
2022-08-09T05:04:26.165Z,1799
2022-08-09T05:05:32.358Z,1799
2022-08-09T05:06:38.547Z,1820
2022-08-09T05:07:44.729Z,1838
2022-08-09T05:08:50.911Z,1873
2022-08-09T05:09:57.114Z,1972
2022-08-09T05:11:03.284Z,2002
2022-08-09T05:12:09.466Z,2041
2022-08-09T05:13:15.653Z,2089
2022-08-09T05:14:21.834Z,2117
2022-08-09T05:15:28.024Z,2170
2022-08-09T05:16:33.217Z,2229
2022-08-09T05:17:39.404Z,2286
2022-08-09T05:18:45.579Z,2376
2022-08-09T05:19:51.772Z,2471
2022-08-09T05:20:57.946Z,2559
2022-08-09T05:22:04.122Z,2647
2022-08-09T05:23:10.294Z,2712
2022-08-09T05:24:16.483Z,2758
2022-08-09T05:25:22.655Z,2820
2022-08-09T05:26:28.834Z,2867
2022-08-09T05:27:35.011Z,2968
2022-08-09T05:28:41.180Z,3028
2022-08-09T05:29:47.360Z,3196
2022-08-09T05:30:52.552Z,3341
2022-08-09T05:31:58.750Z,3424
2022-08-09T05:33:04.900Z,3522
2022-08-09T05:34:11.091Z,3588
2022-08-09T05:35:17.284Z,3639
2022-08-09T05:36:23.443Z,3625
2022-08-09T05:37:29.630Z,3591
2022-08-09T05:38:35.806Z,3559
2022-08-09T05:39:41.983Z,3579
2022-08-09T05:40:48.142Z,3592
2022-08-09T05:41:54.322Z,3632
2022-08-09T05:43:00.491Z,3699
2022-08-09T05:44:06.662Z,3752
2022-08-09T05:45:11.846Z,3775
2022-08-09T05:46:18.013Z,3774
2022-08-09T05:47:24.179Z,3781
2022-08-09T05:48:30.369Z,3805
2022-08-09T05:49:36.520Z,3837
2022-08-09T05:50:42.700Z,3844
2022-08-09T05:51:48.862Z,3844
2022-08-09T05:52:55.027Z,3879
2022-08-09T05:54:01.212Z,3938
2022-08-09T05:55:07.372Z,3964
2022-08-09T05:56:13.534Z,4043
2022-08-09T05:57:19.702Z,4157
2022-08-09T05:58:25.861Z,4303
2022-08-09T05:59:31.048Z,4427
2022-08-09T06:00:37.232Z,4523
2022-08-09T06:01:43.377Z,4627
2022-08-09T06:02:49.550Z,4646
2022-08-09T06:03:55.702Z,4675
2022-08-09T06:05:01.862Z,4674
2022-08-09T06:06:08.034Z,4656
2022-08-09T06:07:14.196Z,4629
2022-08-09T06:08:20.389Z,4560
2022-08-09T06:09:26.526Z,4500
2022-08-09T06:10:32.694Z,4497
2022-08-09T06:11:38.853Z,4583
2022-08-09T06:12:45.013Z,4664
2022-08-09T06:13:50.189Z,4734
2022-08-09T06:14:55.362Z,4817
2022-08-09T06:16:01.534Z,4934
2022-08-09T06:17:07.701Z,4990
2022-08-09T06:18:13.850Z,5114
2022-08-09T06:19:20.025Z,5270
2022-08-09T06:20:26.190Z,5405
2022-08-09T06:21:32.340Z,5574
2022-08-09T06:22:38.499Z,5739
2022-08-09T06:23:44.669Z,5900
2022-08-09T06:24:50.820Z,6085
2022-08-09T06:25:56.973Z,6198
2022-08-09T06:27:03.139Z,6337
2022-08-09T06:28:09.301Z,6502
2022-08-09T06:29:14.470Z,6681
2022-08-09T06:30:20.630Z,6863
2022-08-09T06:31:26.787Z,7084
2022-08-09T06:32:32.930Z,7234
2022-08-09T06:33:39.095Z,7321
2022-08-09T06:34:45.242Z,7424
2022-08-09T06:35:51.393Z,7463
2022-08-09T06:36:57.553Z,7521
2022-08-09T06:38:03.699Z,7699
2022-08-09T06:39:09.869Z,7938
2022-08-09T06:40:15.998Z,8263
2022-08-09T06:41:22.157Z,8461
2022-08-09T06:42:28.305Z,8770
2022-08-09T06:43:33.462Z,9029
2022-08-09T06:44:39.600Z,9270
2022-08-09T06:45:45.732Z,9332
2022-08-09T06:46:51.875Z,9153
2022-08-09T06:47:58.017Z,9082
2022-08-09T06:49:04.161Z,9027
2022-08-09T06:50:10.297Z,9132
2022-08-09T06:51:16.435Z,9251
2022-08-09T06:52:22.582Z,9468
2022-08-09T06:53:28.712Z,9895
2022-08-09T06:54:34.851Z,10275
2022-08-09T06:55:40.991Z,10528
2022-08-09T06:56:47.134Z,10733
2022-08-09T06:57:52.297Z,10959
2022-08-09T06:58:58.431Z,11248
2022-08-09T07:00:04.564Z,11658
2022-08-09T07:01:10.697Z,12391
2022-08-09T07:02:16.821Z,13272
2022-08-09T07:03:22.952Z,14050
2022-08-09T07:04:29.078Z,14743
2022-08-09T07:05:35.204Z,15515
2022-08-09T07:06:41.326Z,16732
2022-08-09T07:07:47.466Z,18846
2022-08-09T07:08:53.571Z,19912
2022-08-09T07:09:59.693Z,21125
2022-08-09T07:11:05.811Z,21678
2022-08-09T07:12:11.938Z,20916
2022-08-09T07:13:18.047Z,9377
2022-08-09T07:14:24.162Z,29910
2022-08-09T07:15:30.270Z,33728
2022-08-09T07:16:36.361Z,17408
2022-08-09T07:17:42.476Z,62778
2022-08-09T07:18:48.572Z,31004
2022-08-09T07:19:54.667Z,29589
2022-08-09T07:21:00.773Z,23698
2022-08-09T07:22:06.861Z,47454
2022-08-09T07:23:12.949Z,29088
2022-08-09T07:24:19.034Z,39779
2022-08-09T07:25:25.113Z,41670
2022-08-09T07:26:31.198Z,37074
2022-08-09T07:27:37.271Z,37562
2022-08-09T07:28:43.350Z,14994
2022-08-09T07:29:49.442Z,24714
2022-08-09T07:30:55.509Z,24013
2022-08-09T07:32:01.578Z,16551
2022-08-09T07:33:07.638Z,14960
2022-08-09T07:34:13.696Z,23112
2022-08-09T07:35:19.746Z,20257
2022-08-09T07:36:25.781Z,17392
2022-08-09T07:37:31.806Z,18225
2022-08-09T07:38:37.906Z,64441
2022-08-09T07:39:44.022Z,34930
2022-08-09T07:40:50.114Z,42297
2022-08-09T07:41:56.185Z,44436
2022-08-09T07:43:02.280Z,64772
2022-08-09T07:44:08.371Z,44145
2022-08-09T07:45:14.453Z,38880
2022-08-09T07:46:20.559Z,22813
2022-08-09T07:47:26.654Z,140
2022-08-09T07:48:32.738Z,42326
2022-08-09T07:49:38.829Z,36536
2022-08-09T07:50:44.921Z,57477
2022-08-09T07:51:51.031Z,40883
2022-08-09T07:52:57.257Z,40686
2022-08-09T07:54:03.465Z,30931
2022-08-09T07:55:09.690Z,39125
2022-08-09T07:56:15.913Z,8293
2022-08-09T07:57:22.139Z,62726
2022-08-09T07:58:28.363Z,54474
2022-08-09T07:59:34.589Z,51048
2022-08-09T08:00:40.799Z,58139
2022-08-09T08:01:47.034Z,52752
2022-08-09T08:02:53.250Z,50344
2022-08-09T08:03:59.477Z,34175
2022-08-09T08:05:05.683Z,34459
2022-08-09T08:06:11.894Z,22743
2022-08-09T08:08:46.761Z,22741
2022-08-09T08:09:52.100Z,29030
2022-08-09T08:10:58.082Z,14229
2022-08-09T08:12:04.062Z,36600
2022-08-09T08:13:10.056Z,20972
2022-08-09T08:14:16.041Z,18219
2022-08-09T08:15:21.993Z,18338
2022-08-09T08:16:27.978Z,25007
2022-08-09T08:17:33.943Z,32592
2022-08-09T08:18:39.902Z,28192
2022-08-09T08:19:45.853Z,31475
2022-08-09T08:20:51.809Z,32746
2022-08-09T08:21:57.768Z,30928
2022-08-09T08:23:03.704Z,27463
2022-08-09T08:24:09.652Z,23158
2022-08-09T08:25:15.603Z,25689
2022-08-09T08:26:21.524Z,23476
2022-08-09T08:27:27.478Z,18676
2022-08-09T08:28:33.426Z,32598
2022-08-09T08:29:39.354Z,31973
2022-08-09T08:30:45.285Z,13631
2022-08-09T08:31:51.290Z,13219
2022-08-09T08:32:57.173Z,11613
2022-08-09T08:34:03.115Z,50049
2022-08-09T08:35:09.069Z,23789
2022-08-09T08:36:15.026Z,10025
2022-08-09T08:37:21.050Z,52231
2022-08-09T08:38:27.073Z,11662
2022-08-09T08:39:33.115Z,23589
2022-08-09T08:40:39.155Z,24426
2022-08-09T08:41:45.182Z,17571
2022-08-09T08:42:51.216Z,9835
2022-08-09T08:43:57.253Z,45208
2022-08-09T08:45:03.281Z,22591
2022-08-09T08:46:09.320Z,12821
2022-08-09T08:47:15.351Z,38890
2022-08-09T08:48:21.394Z,27238
2022-08-09T08:49:27.435Z,33249
2022-08-09T08:50:33.467Z,32901
2022-08-09T08:51:39.616Z,31551
2022-08-09T08:52:45.783Z,32936
2022-08-09T08:53:51.924Z,24825
2022-08-09T08:54:58.073Z,25045
2022-08-09T08:56:04.210Z,26796
2022-08-09T08:57:10.363Z,25337
2022-08-09T08:58:16.517Z,18555
2022-08-09T08:59:22.643Z,33440
2022-08-09T09:00:28.777Z,29131
2022-08-09T09:01:34.921Z,27728
2022-08-09T09:02:41.051Z,30287
2022-08-09T09:03:47.187Z,28803
2022-08-09T09:04:53.315Z,33931
2022-08-09T09:05:59.691Z,25027
2022-08-09T09:07:04.965Z,23733
2022-08-09T09:08:10.887Z,33127
2022-08-09T09:09:16.821Z,28384
2022-08-09T09:10:22.747Z,30666
2022-08-09T09:11:28.695Z,31558
2022-08-09T09:12:34.617Z,30235
2022-08-09T09:13:40.551Z,32580
2022-08-09T09:14:46.492Z,29536
2022-08-09T09:15:52.443Z,34238
2022-08-09T09:16:58.348Z,31252
2022-08-09T09:18:04.302Z,29246
2022-08-09T09:19:10.238Z,31501
2022-08-09T09:20:16.150Z,28089
2022-08-09T09:21:22.092Z,33493
2022-08-09T09:22:28.059Z,31069
2022-08-09T09:23:33.946Z,33187
2022-08-09T09:24:39.883Z,28175
2022-08-09T09:25:45.818Z,30411
2022-08-09T09:26:51.760Z,33278
2022-08-09T09:27:57.682Z,32804
2022-08-09T09:29:03.599Z,31640
2022-08-09T09:30:09.547Z,28387
2022-08-09T09:31:15.468Z,24175
2022-08-09T09:32:21.405Z,27421
2022-08-09T09:33:27.348Z,29456
2022-08-09T09:34:33.367Z,32837
2022-08-09T09:35:39.384Z,29666
2022-08-09T09:36:45.410Z,26977
2022-08-09T09:37:51.427Z,32932
2022-08-09T09:38:57.453Z,25160
2022-08-09T09:40:03.483Z,25816
2022-08-09T09:41:09.501Z,24971
2022-08-09T09:42:15.533Z,25903
2022-08-09T09:43:21.543Z,24118
2022-08-09T09:44:27.560Z,26027
2022-08-09T09:45:33.582Z,26006
2022-08-09T09:46:39.609Z,23522
2022-08-09T09:47:45.637Z,28634
2022-08-09T09:48:51.767Z,27144
2022-08-09T09:49:57.919Z,24177
2022-08-09T09:51:04.067Z,25911
2022-08-09T09:52:10.240Z,25257
2022-08-09T09:53:16.391Z,23008
2022-08-09T09:54:22.530Z,24568
2022-08-09T09:55:28.719Z,23323
2022-08-09T09:56:34.846Z,24036
2022-08-09T09:57:41.018Z,23264
2022-08-09T09:58:47.155Z,12785
2022-08-09T09:59:53.305Z,62366
2022-08-09T10:00:59.465Z,34769
2022-08-09T10:02:05.618Z,24760
2022-08-09T10:04:40.387Z,23924
2022-08-09T10:05:45.687Z,23778
2022-08-09T10:06:51.640Z,22795
2022-08-09T10:07:57.591Z,22562
2022-08-09T10:09:03.558Z,22339
2022-08-09T10:10:09.530Z,22200
2022-08-09T10:11:15.470Z,21975
2022-08-09T10:12:21.425Z,21825
2022-08-09T10:13:27.392Z,21678
2022-08-09T10:14:33.361Z,21447
2022-08-09T10:15:39.317Z,21305
2022-08-09T10:16:45.276Z,21124
2022-08-09T10:17:51.237Z,21088
2022-08-09T10:18:57.198Z,21003
2022-08-09T10:20:03.160Z,21036
2022-08-09T10:21:09.134Z,21254
2022-08-09T10:22:15.105Z,20357
2022-08-09T10:23:21.070Z,21374
2022-08-09T10:24:27.043Z,22483
2022-08-09T10:25:32.998Z,21648
2022-08-09T10:26:38.971Z,21234
2022-08-09T10:27:44.944Z,21383
2022-08-09T10:28:50.899Z,21046
2022-08-09T10:29:56.870Z,20355
2022-08-09T10:31:02.832Z,20266
2022-08-09T10:32:08.830Z,21581
2022-08-09T10:33:14.841Z,19906
2022-08-09T10:34:20.888Z,13659
2022-08-09T10:35:26.928Z,14084
2022-08-09T10:36:32.973Z,20073
2022-08-09T10:37:39.016Z,19676
2022-08-09T10:38:45.076Z,19616
2022-08-09T10:39:51.116Z,19857
2022-08-09T10:40:57.164Z,19840
2022-08-09T10:42:03.214Z,19794
2022-08-09T10:43:09.256Z,19646
2022-08-09T10:44:15.314Z,20923
2022-08-09T10:45:21.367Z,19791
2022-08-09T10:46:27.420Z,19939
2022-08-09T10:47:33.597Z,21563
2022-08-09T10:48:39.772Z,22173
2022-08-09T10:49:45.958Z,22647
2022-08-09T10:50:52.132Z,22323
2022-08-09T10:51:58.303Z,21294
2022-08-09T10:53:04.475Z,20805
2022-08-09T10:54:10.655Z,19882
2022-08-09T10:55:16.835Z,19896
2022-08-09T10:56:23.009Z,20710
2022-08-09T10:57:29.196Z,18623
2022-08-09T10:58:35.351Z,23547
2022-08-09T10:59:41.526Z,17391
2022-08-09T11:00:47.695Z,15195
2022-08-09T11:01:54.122Z,8841
2022-08-09T11:02:59.522Z,17869
2022-08-09T11:04:05.543Z,18231
2022-08-09T11:05:11.599Z,18034
2022-08-09T11:06:17.657Z,18316
2022-08-09T11:07:23.684Z,18071
2022-08-09T11:08:29.731Z,18277
2022-08-09T11:09:35.785Z,18308
2022-08-09T11:10:41.828Z,18729
2022-08-09T11:11:47.883Z,20111
2022-08-09T11:12:53.930Z,20777
2022-08-09T11:13:59.976Z,21731
2022-08-09T11:15:06.023Z,22437
2022-08-09T11:16:12.066Z,15222
2022-08-09T11:17:18.193Z,19637
2022-08-09T11:18:24.151Z,18798
2022-08-09T11:19:30.197Z,19153
2022-08-09T11:20:36.234Z,18402
2022-08-09T11:21:42.272Z,17847
2022-08-09T11:22:48.315Z,17468
2022-08-09T11:23:54.358Z,17329
2022-08-09T11:25:00.401Z,17822
2022-08-09T11:26:06.452Z,17867
2022-08-09T11:27:12.490Z,22856
2022-08-09T11:28:18.534Z,17165
2022-08-09T11:29:24.581Z,15406
2022-08-09T11:30:30.777Z,26138
2022-08-09T11:31:36.933Z,18221
2022-08-09T11:32:43.090Z,16193
2022-08-09T11:33:49.273Z,16563
2022-08-09T11:34:55.438Z,17422
2022-08-09T11:36:01.606Z,10199
2022-08-09T11:37:07.776Z,24272
2022-08-09T11:38:13.957Z,13870
2022-08-09T11:39:20.146Z,20262
2022-08-09T11:40:26.304Z,16225
2022-08-09T11:41:32.488Z,15720
2022-08-09T11:42:38.664Z,15873
2022-08-09T11:43:44.849Z,15714
2022-08-09T11:45:35.890Z,15446
2022-08-09T11:46:41.194Z,15410
2022-08-09T11:47:47.172Z,14287
2022-08-09T11:48:53.160Z,14179
2022-08-09T11:49:59.131Z,13743
2022-08-09T11:51:05.125Z,13694
2022-08-09T11:52:11.110Z,13304
2022-08-09T11:53:17.101Z,13020
2022-08-09T11:54:23.074Z,12870
2022-08-09T11:55:29.068Z,13070
2022-08-09T11:56:35.055Z,12901
2022-08-09T11:57:41.064Z,11772
2022-08-09T11:58:47.048Z,11102
2022-08-09T11:59:53.050Z,11046
2022-08-09T12:00:59.050Z,10864
2022-08-09T12:02:05.056Z,10811
2022-08-09T12:03:11.053Z,10886
2022-08-09T12:04:17.057Z,9852
2022-08-09T12:05:23.056Z,12400
2022-08-09T12:06:29.069Z,11529
2022-08-09T12:07:35.074Z,11202
2022-08-09T12:08:41.095Z,12351
2022-08-09T12:09:47.093Z,12115
2022-08-09T12:10:53.106Z,12047
2022-08-09T12:11:59.120Z,11871
2022-08-09T12:13:05.121Z,12010
2022-08-09T12:14:11.231Z,10868
2022-08-09T12:15:17.300Z,14901
2022-08-09T12:16:23.389Z,13495
2022-08-09T12:17:29.466Z,13322
2022-08-09T12:18:35.552Z,8127
2022-08-09T12:19:41.652Z,13761
2022-08-09T12:20:47.735Z,15688
2022-08-09T12:21:53.812Z,16250
2022-08-09T12:22:59.914Z,16017
2022-08-09T12:24:06.001Z,16215
2022-08-09T12:25:12.079Z,16012
2022-08-09T12:26:18.154Z,15854
2022-08-09T12:27:24.224Z,15968
2022-08-09T12:28:30.437Z,15836
2022-08-09T12:29:36.625Z,15518
2022-08-09T12:30:42.821Z,15881
2022-08-09T12:31:49.012Z,16439
2022-08-09T12:32:55.204Z,17402
2022-08-09T12:34:01.397Z,15674
2022-08-09T12:35:07.578Z,15265
2022-08-09T12:36:13.767Z,16366
2022-08-09T12:37:19.949Z,16490
2022-08-09T12:38:26.135Z,16266
2022-08-09T12:39:32.316Z,16405
2022-08-09T12:40:38.498Z,16050
2022-08-09T12:41:44.661Z,16049
2022-08-09T12:44:19.475Z,16088
2022-08-09T12:45:24.774Z,15931
2022-08-09T12:46:30.761Z,15505
2022-08-09T12:47:36.726Z,15527
2022-08-09T12:48:42.698Z,15224
2022-08-09T12:49:48.679Z,15219
2022-08-09T12:50:54.641Z,15348
2022-08-09T12:52:00.622Z,15131
2022-08-09T12:53:06.585Z,14803
2022-08-09T12:54:12.554Z,14936
2022-08-09T12:55:18.528Z,15174
2022-08-09T12:56:24.493Z,14974
2022-08-09T12:57:30.447Z,14779
2022-08-09T12:58:36.437Z,16076
2022-08-09T12:59:42.397Z,22407
2022-08-09T13:00:48.364Z,13324
2022-08-09T13:01:54.326Z,11076
2022-08-09T13:03:00.311Z,11798
2022-08-09T13:04:06.266Z,15585
2022-08-09T13:05:12.233Z,12086
2022-08-09T13:06:18.195Z,12870
2022-08-09T13:07:24.165Z,12885
2022-08-09T13:08:30.140Z,12655
2022-08-09T13:09:36.118Z,12047
2022-08-09T13:10:42.100Z,11700
2022-08-09T13:11:48.071Z,11638
2022-08-09T13:12:54.119Z,11587
2022-08-09T13:14:00.190Z,11410
2022-08-09T13:15:06.250Z,11376
2022-08-09T13:16:12.306Z,11485
2022-08-09T13:17:18.372Z,11560
2022-08-09T13:18:24.435Z,11500
2022-08-09T13:19:30.502Z,11272
2022-08-09T13:20:36.587Z,11673
2022-08-09T13:21:42.649Z,6849
2022-08-09T13:22:48.730Z,15615
2022-08-09T13:23:54.823Z,12830
2022-08-09T13:25:00.871Z,7640
2022-08-09T13:26:06.960Z,16560
2022-08-09T13:27:13.160Z,12069
2022-08-09T13:28:19.378Z,11371
2022-08-09T13:29:25.563Z,10887
2022-08-09T13:30:31.763Z,10637
2022-08-09T13:31:37.968Z,10513
2022-08-09T13:32:44.173Z,10147
2022-08-09T13:33:50.386Z,9316
2022-08-09T13:34:56.598Z,10313
2022-08-09T13:36:02.817Z,3634
2022-08-09T13:37:09.030Z,16739
2022-08-09T13:38:15.248Z,9742
2022-08-09T13:39:21.459Z,11533
2022-08-09T13:40:27.662Z,9746
2022-08-09T13:43:24.552Z,9408
2022-08-09T13:44:29.898Z,9064
2022-08-09T13:45:35.905Z,10403
2022-08-09T13:46:41.918Z,10510
2022-08-09T13:47:47.942Z,10316
2022-08-09T13:48:53.948Z,10110
2022-08-09T13:49:59.970Z,10217
2022-08-09T13:51:05.982Z,10131
2022-08-09T13:52:12.009Z,10033
2022-08-09T13:53:18.027Z,9803
2022-08-09T13:54:24.015Z,9644
2022-08-09T13:55:30.039Z,9583
2022-08-09T13:56:36.051Z,9530
2022-08-09T13:57:42.075Z,9570
2022-08-09T13:58:48.089Z,9538
2022-08-09T13:59:54.092Z,9381
2022-08-09T14:01:00.103Z,9461
2022-08-09T14:02:06.116Z,9696
2022-08-09T14:03:12.155Z,9690
2022-08-09T14:04:18.161Z,9909
2022-08-09T14:05:24.175Z,9869
2022-08-09T14:06:30.186Z,10006
2022-08-09T14:07:36.206Z,7235
2022-08-09T14:08:42.233Z,12059
2022-08-09T14:09:48.251Z,10551
2022-08-09T14:10:54.262Z,11522
2022-08-09T14:12:00.378Z,12177
2022-08-09T14:13:06.441Z,11166
2022-08-09T14:14:12.506Z,9777
2022-08-09T14:15:18.606Z,11859
2022-08-09T14:16:24.681Z,14039
2022-08-09T14:17:30.777Z,14435
2022-08-09T14:18:36.853Z,15111
2022-08-09T14:19:42.920Z,7973
2022-08-09T14:20:49.003Z,17819
2022-08-09T14:21:55.083Z,11639
2022-08-09T14:23:01.165Z,11283
2022-08-09T14:24:07.230Z,10960
2022-08-09T14:25:13.312Z,5898
2022-08-09T14:26:19.501Z,10737
2022-08-09T14:27:25.701Z,11883
2022-08-09T14:28:31.905Z,14147
2022-08-09T14:29:38.113Z,12847
2022-08-09T14:30:44.299Z,16085
2022-08-09T14:31:50.500Z,15477
2022-08-09T14:32:56.686Z,10262
2022-08-09T14:34:02.879Z,10027
2022-08-09T14:35:09.082Z,9850
2022-08-09T14:36:15.280Z,9720
2022-08-09T14:37:21.484Z,9584
2022-08-09T14:38:27.675Z,9554
2022-08-09T14:39:33.885Z,9475
2022-08-09T14:42:08.750Z,9361
2022-08-09T14:43:14.087Z,9239
2022-08-09T14:44:20.093Z,9016
2022-08-09T14:45:26.094Z,8944
2022-08-09T14:46:32.098Z,8976
2022-08-09T14:47:38.107Z,8918
2022-08-09T14:48:44.104Z,8838
2022-08-09T14:49:50.123Z,8666
2022-08-09T14:50:56.137Z,8613
2022-08-09T14:52:02.143Z,8689
2022-08-09T14:53:08.164Z,8371
2022-08-09T14:54:14.180Z,8881
2022-08-09T14:55:20.198Z,7336
2022-08-09T14:56:26.198Z,10270